sensor_id;sensor_type;location;lat;lon;timestamp;temperature;humidity
5429;DHT22;2737;52.386;9.980;2024-03-02T00:01:36;8.30;99.90
5429;DHT22;2737;52.386;9.980;2024-03-02T00:04:05;8.30;99.90
5429;DHT22;2737;52.386;9.980;2024-03-02T00:06:34;8.30;99.90
5429;DHT22;2737;52.386;9.980;2024-03-02T00:09:01;8.30;99.90
5429;DHT22;2737;52.386;9.980;2024-03-02T00:11:29;8.30;99.90
5429;DHT22;2737;52.386;9.980;2024-03-02T00:13:56;8.30;99.90
5429;DHT22;2737;52.386;9.980;2024-03-02T00:16:23;8.30;99.90
5429;DHT22;2737;52.386;9.980;2024-03-02T00:18:51;8.30;99.90
5429;DHT22;2737;52.386;9.980;2024-03-02T00:21:19;8.30;99.90
5429;DHT22;2737;52.386;9.980;2024-03-02T00:23:48;8.30;99.90
5429;DHT22;2737;52.386;9.980;2024-03-02T00:26:17;8.30;99.90
5429;DHT22;2737;52.386;9.980;2024-03-02T00:28:44;8.30;99.90
5429;DHT22;2737;52.386;9.980;2024-03-02T00:31:12;8.30;99.90
5429;DHT22;2737;52.386;9.980;2024-03-02T00:33:42;8.20;99.90
5429;DHT22;2737;52.386;9.980;2024-03-02T00:36:11;8.20;99.90
5429;DHT22;2737;52.386;9.980;2024-03-02T00:38:45;8.20;99.90
5429;DHT22;2737;52.386;9.980;2024-03-02T00:41:17;8.20;99.90
5429;DHT22;2737;52.386;9.980;2024-03-02T00:43:47;8.20;99.90
5429;DHT22;2737;52.386;9.980;2024-03-02T00:46:18;8.20;99.90
5429;DHT22;2737;52.386;9.980;2024-03-02T00:48:52;8.20;99.90
5429;DHT22;2737;52.386;9.980;2024-03-02T00:51:20;8.20;99.90
5429;DHT22;2737;52.386;9.980;2024-03-02T00:53:50;8.20;99.90
5429;DHT22;2737;52.386;9.980;2024-03-02T00:56:18;8.20;99.90
5429;DHT22;2737;52.386;9.980;2024-03-02T00:58:45;8.30;99.90
5429;DHT22;2737;52.386;9.980;2024-03-02T01:01:12;8.30;99.90
5429;DHT22;2737;52.386;9.980;2024-03-02T01:03:40;8.30;99.90
5429;DHT22;2737;52.386;9.980;2024-03-02T01:06:08;8.30;99.90
5429;DHT22;2737;52.386;9.980;2024-03-02T01:08:35;8.30;99.90
5429;DHT22;2737;52.386;9.980;2024-03-02T01:11:04;8.20;99.90
5429;DHT22;2737;52.386;9.980;2024-03-02T01:13:31;8.20;99.90
5429;DHT22;2737;52.386;9.980;2024-03-02T01:15:59;8.20;99.90
5429;DHT22;2737;52.386;9.980;2024-03-02T01:18:26;8.30;99.90
5429;DHT22;2737;52.386;9.980;2024-03-02T01:20:53;8.30;99.90
5429;DHT22;2737;52.386;9.980;2024-03-02T01:23:22;8.30;99.90
5429;DHT22;2737;52.386;9.980;2024-03-02T01:25:49;8.20;99.90
5429;DHT22;2737;52.386;9.980;2024-03-02T01:28:18;8.20;99.90
5429;DHT22;2737;52.386;9.980;2024-03-02T01:30:46;8.20;99.90
5429;DHT22;2737;52.386;9.980;2024-03-02T01:33:13;8.20;99.90
5429;DHT22;2737;52.386;9.980;2024-03-02T01:35:40;8.20;99.90
5429;DHT22;2737;52.386;9.980;2024-03-02T01:38:07;8.20;99.90
5429;DHT22;2737;52.386;9.980;2024-03-02T01:40:35;8.20;99.90
5429;DHT22;2737;52.386;9.980;2024-03-02T01:43:03;8.20;99.90
5429;DHT22;2737;52.386;9.980;2024-03-02T01:45:32;8.20;99.90
5429;DHT22;2737;52.386;9.980;2024-03-02T01:47:59;8.20;99.90
5429;DHT22;2737;52.386;9.980;2024-03-02T01:50:27;8.20;99.90
5429;DHT22;2737;52.386;9.980;2024-03-02T01:52:55;8.20;99.90
5429;DHT22;2737;52.386;9.980;2024-03-02T01:55:22;8.10;99.90
5429;DHT22;2737;52.386;9.980;2024-03-02T01:57:49;8.10;99.90
5429;DHT22;2737;52.386;9.980;2024-03-02T02:00:18;8.10;99.90
5429;DHT22;2737;52.386;9.980;2024-03-02T02:02:47;8.10;99.90
5429;DHT22;2737;52.386;9.980;2024-03-02T02:05:14;8.00;99.90
5429;DHT22;2737;52.386;9.980;2024-03-02T02:07:41;8.00;99.90
5429;DHT22;2737;52.386;9.980;2024-03-02T02:10:09;8.00;99.90
5429;DHT22;2737;52.386;9.980;2024-03-02T02:12:37;8.00;99.90
5429;DHT22;2737;52.386;9.980;2024-03-02T02:15:07;8.00;99.90
5429;DHT22;2737;52.386;9.980;2024-03-02T02:17:49;8.00;99.90
5429;DHT22;2737;52.386;9.980;2024-03-02T02:20:16;7.90;99.90
5429;DHT22;2737;52.386;9.980;2024-03-02T02:22:55;8.00;99.90
5429;DHT22;2737;52.386;9.980;2024-03-02T02:25:23;8.00;99.90
5429;DHT22;2737;52.386;9.980;2024-03-02T02:27:50;8.00;99.90
5429;DHT22;2737;52.386;9.980;2024-03-02T02:30:19;8.00;99.90
5429;DHT22;2737;52.386;9.980;2024-03-02T02:32:46;8.00;99.90
5429;DHT22;2737;52.386;9.980;2024-03-02T02:35:14;8.00;99.90
5429;DHT22;2737;52.386;9.980;2024-03-02T02:37:41;8.00;99.90
5429;DHT22;2737;52.386;9.980;2024-03-02T02:40:11;8.00;99.90
5429;DHT22;2737;52.386;9.980;2024-03-02T02:42:38;8.00;99.90
5429;DHT22;2737;52.386;9.980;2024-03-02T02:45:06;8.00;99.90
5429;DHT22;2737;52.386;9.980;2024-03-02T02:47:33;8.00;99.90
5429;DHT22;2737;52.386;9.980;2024-03-02T02:50:01;8.00;99.90
5429;DHT22;2737;52.386;9.980;2024-03-02T02:52:32;8.00;99.90
5429;DHT22;2737;52.386;9.980;2024-03-02T02:55:03;8.00;99.90
5429;DHT22;2737;52.386;9.980;2024-03-02T02:57:31;8.00;99.90
5429;DHT22;2737;52.386;9.980;2024-03-02T03:00:02;7.90;99.90
5429;DHT22;2737;52.386;9.980;2024-03-02T03:02:36;7.90;99.90
5429;DHT22;2737;52.386;9.980;2024-03-02T03:05:04;7.90;99.90
5429;DHT22;2737;52.386;9.980;2024-03-02T03:07:31;7.90;99.90
5429;DHT22;2737;52.386;9.980;2024-03-02T03:09:58;7.90;99.90
5429;DHT22;2737;52.386;9.980;2024-03-02T03:12:26;7.90;99.90
5429;DHT22;2737;52.386;9.980;2024-03-02T03:14:54;7.90;99.90
5429;DHT22;2737;52.386;9.980;2024-03-02T03:17:21;7.90;99.90
5429;DHT22;2737;52.386;9.980;2024-03-02T03:19:49;7.90;99.90
5429;DHT22;2737;52.386;9.980;2024-03-02T03:22:16;7.90;99.90
5429;DHT22;2737;52.386;9.980;2024-03-02T03:24:43;7.80;99.90
5429;DHT22;2737;52.386;9.980;2024-03-02T03:27:10;7.80;99.90
5429;DHT22;2737;52.386;9.980;2024-03-02T03:29:37;7.80;99.90
5429;DHT22;2737;52.386;9.980;2024-03-02T03:32:07;7.80;99.90
5429;DHT22;2737;52.386;9.980;2024-03-02T03:34:34;7.80;99.90
5429;DHT22;2737;52.386;9.980;2024-03-02T03:37:01;7.70;99.90
5429;DHT22;2737;52.386;9.980;2024-03-02T03:39:28;7.70;99.90
5429;DHT22;2737;52.386;9.980;2024-03-02T03:41:55;7.50;99.90
5429;DHT22;2737;52.386;9.980;2024-03-02T03:44:22;7.60;99.90
5429;DHT22;2737;52.386;9.980;2024-03-02T03:46:49;7.60;99.90
5429;DHT22;2737;52.386;9.980;2024-03-02T03:49:18;7.60;99.90
5429;DHT22;2737;52.386;9.980;2024-03-02T03:51:45;7.60;99.90
5429;DHT22;2737;52.386;9.980;2024-03-02T03:54:12;7.60;99.90
5429;DHT22;2737;52.386;9.980;2024-03-02T03:56:39;7.50;99.90
5429;DHT22;2737;52.386;9.980;2024-03-02T03:59:06;7.50;99.90
5429;DHT22;2737;52.386;9.980;2024-03-02T04:01:33;7.50;99.90
5429;DHT22;2737;52.386;9.980;2024-03-02T04:04:00;7.50;99.90
5429;DHT22;2737;52.386;9.980;2024-03-02T04:06:30;7.50;99.90
5429;DHT22;2737;52.386;9.980;2024-03-02T04:08:57;7.50;99.90
5429;DHT22;2737;52.386;9.980;2024-03-02T04:11:24;7.50;99.90
5429;DHT22;2737;52.386;9.980;2024-03-02T04:13:51;7.40;99.90
5429;DHT22;2737;52.386;9.980;2024-03-02T04:16:18;7.40;99.90
5429;DHT22;2737;52.386;9.980;2024-03-02T04:18:45;7.30;99.90
5429;DHT22;2737;52.386;9.980;2024-03-02T04:21:12;7.30;99.90
5429;DHT22;2737;52.386;9.980;2024-03-02T04:23:41;7.30;99.90
5429;DHT22;2737;52.386;9.980;2024-03-02T04:26:08;7.30;99.90
5429;DHT22;2737;52.386;9.980;2024-03-02T04:28:35;7.30;99.90
5429;DHT22;2737;52.386;9.980;2024-03-02T04:31:02;7.20;99.90
5429;DHT22;2737;52.386;9.980;2024-03-02T04:33:29;7.20;99.90
5429;DHT22;2737;52.386;9.980;2024-03-02T04:35:56;7.20;99.90
5429;DHT22;2737;52.386;9.980;2024-03-02T04:38:23;7.10;99.90
5429;DHT22;2737;52.386;9.980;2024-03-02T04:40:51;7.10;99.90
5429;DHT22;2737;52.386;9.980;2024-03-02T04:43:18;7.10;99.90
5429;DHT22;2737;52.386;9.980;2024-03-02T04:45:45;7.10;99.90
5429;DHT22;2737;52.386;9.980;2024-03-02T04:48:12;7.10;99.90
5429;DHT22;2737;52.386;9.980;2024-03-02T04:50:40;7.10;99.90
5429;DHT22;2737;52.386;9.980;2024-03-02T04:53:07;7.10;99.90
5429;DHT22;2737;52.386;9.980;2024-03-02T04:55:34;7.10;99.90
5429;DHT22;2737;52.386;9.980;2024-03-02T04:58:46;7.10;99.90
5429;DHT22;2737;52.386;9.980;2024-03-02T05:01:13;7.00;99.90
5429;DHT22;2737;52.386;9.980;2024-03-02T05:03:42;7.00;99.90
5429;DHT22;2737;52.386;9.980;2024-03-02T05:06:09;7.00;99.90
5429;DHT22;2737;52.386;9.980;2024-03-02T05:08:36;7.00;99.90
5429;DHT22;2737;52.386;9.980;2024-03-02T05:11:03;6.90;99.90
5429;DHT22;2737;52.386;9.980;2024-03-02T05:13:45;6.90;99.90
5429;DHT22;2737;52.386;9.980;2024-03-02T05:16:12;6.90;99.90
5429;DHT22;2737;52.386;9.980;2024-03-02T05:18:39;6.80;99.90
5429;DHT22;2737;52.386;9.980;2024-03-02T05:21:06;6.80;99.90
5429;DHT22;2737;52.386;9.980;2024-03-02T05:23:33;6.80;99.90
5429;DHT22;2737;52.386;9.980;2024-03-02T05:26:00;6.80;99.90
5429;DHT22;2737;52.386;9.980;2024-03-02T05:28:27;6.80;99.90
5429;DHT22;2737;52.386;9.980;2024-03-02T05:30:55;6.80;99.90
5429;DHT22;2737;52.386;9.980;2024-03-02T05:33:22;6.80;99.90
5429;DHT22;2737;52.386;9.980;2024-03-02T05:35:49;6.80;99.90
5429;DHT22;2737;52.386;9.980;2024-03-02T05:38:17;6.70;99.90
5429;DHT22;2737;52.386;9.980;2024-03-02T05:40:44;6.70;99.90
5429;DHT22;2737;52.386;9.980;2024-03-02T05:43:11;6.70;99.90
5429;DHT22;2737;52.386;9.980;2024-03-02T05:45:38;6.70;99.90
5429;DHT22;2737;52.386;9.980;2024-03-02T05:48:07;6.60;99.90
5429;DHT22;2737;52.386;9.980;2024-03-02T05:50:34;6.70;99.90
5429;DHT22;2737;52.386;9.980;2024-03-02T05:53:01;6.60;99.90
5429;DHT22;2737;52.386;9.980;2024-03-02T05:55:28;6.60;99.90
5429;DHT22;2737;52.386;9.980;2024-03-02T05:57:56;6.60;99.90
5429;DHT22;2737;52.386;9.980;2024-03-02T06:00:41;6.60;99.90
5429;DHT22;2737;52.386;9.980;2024-03-02T06:03:09;6.60;99.90
5429;DHT22;2737;52.386;9.980;2024-03-02T06:05:36;6.60;99.90
5429;DHT22;2737;52.386;9.980;2024-03-02T06:08:04;6.50;99.90
5429;DHT22;2737;52.386;9.980;2024-03-02T06:10:31;6.50;99.90
5429;DHT22;2737;52.386;9.980;2024-03-02T06:12:58;6.50;99.90
5429;DHT22;2737;52.386;9.980;2024-03-02T06:15:25;6.50;99.90
5429;DHT22;2737;52.386;9.980;2024-03-02T06:17:52;6.60;99.90
5429;DHT22;2737;52.386;9.980;2024-03-02T06:20:20;6.60;99.90
5429;DHT22;2737;52.386;9.980;2024-03-02T06:22:47;6.60;99.90
5429;DHT22;2737;52.386;9.980;2024-03-02T06:25:14;6.60;99.90
5429;DHT22;2737;52.386;9.980;2024-03-02T06:27:41;6.50;99.90
5429;DHT22;2737;52.386;9.980;2024-03-02T06:30:10;6.60;99.90
5429;DHT22;2737;52.386;9.980;2024-03-02T06:32:37;6.60;99.90
5429;DHT22;2737;52.386;9.980;2024-03-02T06:35:05;6.60;99.90
5429;DHT22;2737;52.386;9.980;2024-03-02T06:37:38;6.60;99.90
5429;DHT22;2737;52.386;9.980;2024-03-02T06:40:06;6.60;99.90
5429;DHT22;2737;52.386;9.980;2024-03-02T06:42:34;6.70;99.90
5429;DHT22;2737;52.386;9.980;2024-03-02T06:45:02;6.70;99.90
5429;DHT22;2737;52.386;9.980;2024-03-02T06:47:29;6.80;99.90
5429;DHT22;2737;52.386;9.980;2024-03-02T06:49:56;6.70;99.90
5429;DHT22;2737;52.386;9.980;2024-03-02T06:52:24;6.80;99.90
5429;DHT22;2737;52.386;9.980;2024-03-02T06:54:52;6.80;99.90
5429;DHT22;2737;52.386;9.980;2024-03-02T06:57:19;6.80;99.90
5429;DHT22;2737;52.386;9.980;2024-03-02T06:59:46;6.90;99.90
5429;DHT22;2737;52.386;9.980;2024-03-02T07:02:15;7.00;99.90
5429;DHT22;2737;52.386;9.980;2024-03-02T07:04:42;7.10;99.90
5429;DHT22;2737;52.386;9.980;2024-03-02T07:07:10;7.10;99.90
5429;DHT22;2737;52.386;9.980;2024-03-02T07:09:37;7.30;99.90
5429;DHT22;2737;52.386;9.980;2024-03-02T07:12:06;7.30;99.90
5429;DHT22;2737;52.386;9.980;2024-03-02T07:14:33;7.40;99.90
5429;DHT22;2737;52.386;9.980;2024-03-02T07:17:23;7.50;99.90
5429;DHT22;2737;52.386;9.980;2024-03-02T07:19:50;7.60;99.90
5429;DHT22;2737;52.386;9.980;2024-03-02T07:22:17;7.60;99.90
5429;DHT22;2737;52.386;9.980;2024-03-02T07:24:44;7.70;99.90
5429;DHT22;2737;52.386;9.980;2024-03-02T07:27:14;7.70;99.90
5429;DHT22;2737;52.386;9.980;2024-03-02T07:29:41;7.70;99.90
5429;DHT22;2737;52.386;9.980;2024-03-02T07:32:09;7.70;99.90
5429;DHT22;2737;52.386;9.980;2024-03-02T07:34:36;7.70;99.90
5429;DHT22;2737;52.386;9.980;2024-03-02T07:37:04;7.70;99.90
5429;DHT22;2737;52.386;9.980;2024-03-02T07:39:31;7.80;99.90
5429;DHT22;2737;52.386;9.980;2024-03-02T07:41:59;7.80;99.90
5429;DHT22;2737;52.386;9.980;2024-03-02T07:44:28;7.80;99.90
5429;DHT22;2737;52.386;9.980;2024-03-02T07:46:55;8.00;99.90
5429;DHT22;2737;52.386;9.980;2024-03-02T07:49:22;8.00;99.90
5429;DHT22;2737;52.386;9.980;2024-03-02T07:51:49;8.10;99.90
5429;DHT22;2737;52.386;9.980;2024-03-02T07:54:16;8.20;99.90
5429;DHT22;2737;52.386;9.980;2024-03-02T07:56:43;8.20;99.90
5429;DHT22;2737;52.386;9.980;2024-03-02T07:59:11;8.40;99.90
5429;DHT22;2737;52.386;9.980;2024-03-02T08:01:40;8.40;99.90
5429;DHT22;2737;52.386;9.980;2024-03-02T08:04:07;8.50;99.90
5429;DHT22;2737;52.386;9.980;2024-03-02T08:06:34;8.60;99.90
5429;DHT22;2737;52.386;9.980;2024-03-02T08:09:01;8.70;99.90
5429;DHT22;2737;52.386;9.980;2024-03-02T08:11:30;8.80;99.90
5429;DHT22;2737;52.386;9.980;2024-03-02T08:13:57;8.90;99.90
5429;DHT22;2737;52.386;9.980;2024-03-02T08:16:24;9.00;99.90
5429;DHT22;2737;52.386;9.980;2024-03-02T08:18:54;9.10;99.90
5429;DHT22;2737;52.386;9.980;2024-03-02T08:21:23;9.20;99.90
5429;DHT22;2737;52.386;9.980;2024-03-02T08:23:50;9.30;99.90
5429;DHT22;2737;52.386;9.980;2024-03-02T08:26:17;9.40;99.90
5429;DHT22;2737;52.386;9.980;2024-03-02T08:28:44;9.50;99.90
5429;DHT22;2737;52.386;9.980;2024-03-02T08:31:11;9.60;99.90
5429;DHT22;2737;52.386;9.980;2024-03-02T08:33:38;9.70;99.90
5429;DHT22;2737;52.386;9.980;2024-03-02T08:36:08;9.80;99.90
5429;DHT22;2737;52.386;9.980;2024-03-02T08:38:35;9.80;99.90
5429;DHT22;2737;52.386;9.980;2024-03-02T08:41:03;9.90;99.90
5429;DHT22;2737;52.386;9.980;2024-03-02T08:43:30;9.90;99.90
5429;DHT22;2737;52.386;9.980;2024-03-02T08:45:58;10.00;99.90
5429;DHT22;2737;52.386;9.980;2024-03-02T08:48:25;10.10;99.90
5429;DHT22;2737;52.386;9.980;2024-03-02T08:50:52;10.10;99.90
5429;DHT22;2737;52.386;9.980;2024-03-02T08:53:20;10.20;99.90
5429;DHT22;2737;52.386;9.980;2024-03-02T08:55:47;10.20;99.90
5429;DHT22;2737;52.386;9.980;2024-03-02T08:58:14;10.30;99.90
5429;DHT22;2737;52.386;9.980;2024-03-02T09:00:44;10.30;99.90
5429;DHT22;2737;52.386;9.980;2024-03-02T09:03:13;10.30;99.90
5429;DHT22;2737;52.386;9.980;2024-03-02T09:05:40;10.40;99.90
5429;DHT22;2737;52.386;9.980;2024-03-02T09:08:08;10.50;99.90
5429;DHT22;2737;52.386;9.980;2024-03-02T09:10:37;10.50;99.90
5429;DHT22;2737;52.386;9.980;2024-03-02T09:13:05;10.50;99.90
5429;DHT22;2737;52.386;9.980;2024-03-02T09:15:32;10.60;99.90
5429;DHT22;2737;52.386;9.980;2024-03-02T09:18:03;10.70;99.90
5429;DHT22;2737;52.386;9.980;2024-03-02T09:20:30;10.80;99.90
5429;DHT22;2737;52.386;9.980;2024-03-02T09:22:57;10.90;99.90
5429;DHT22;2737;52.386;9.980;2024-03-02T09:25:24;11.00;99.90
5429;DHT22;2737;52.386;9.980;2024-03-02T09:27:53;11.10;99.90
5429;DHT22;2737;52.386;9.980;2024-03-02T09:30:20;11.20;99.90
5429;DHT22;2737;52.386;9.980;2024-03-02T09:32:47;11.20;99.90
5429;DHT22;2737;52.386;9.980;2024-03-02T09:35:14;11.20;99.90
5429;DHT22;2737;52.386;9.980;2024-03-02T09:37:41;11.30;99.90
5429;DHT22;2737;52.386;9.980;2024-03-02T09:40:10;11.30;99.90
5429;DHT22;2737;52.386;9.980;2024-03-02T09:42:37;11.40;99.90
5429;DHT22;2737;52.386;9.980;2024-03-02T09:45:06;11.40;99.90
5429;DHT22;2737;52.386;9.980;2024-03-02T09:47:34;11.50;99.90
5429;DHT22;2737;52.386;9.980;2024-03-02T09:50:01;11.50;99.90
5429;DHT22;2737;52.386;9.980;2024-03-02T09:52:28;11.50;99.90
5429;DHT22;2737;52.386;9.980;2024-03-02T09:54:55;11.50;99.90
5429;DHT22;2737;52.386;9.980;2024-03-02T09:57:22;11.50;99.90
5429;DHT22;2737;52.386;9.980;2024-03-02T09:59:49;11.60;99.90
5429;DHT22;2737;52.386;9.980;2024-03-02T10:02:17;11.70;99.90
5429;DHT22;2737;52.386;9.980;2024-03-02T10:04:44;11.60;99.90
5429;DHT22;2737;52.386;9.980;2024-03-02T10:07:13;11.60;99.90
5429;DHT22;2737;52.386;9.980;2024-03-02T10:09:41;11.70;99.90
5429;DHT22;2737;52.386;9.980;2024-03-02T10:12:10;11.70;99.90
5429;DHT22;2737;52.386;9.980;2024-03-02T10:14:38;11.70;99.90
5429;DHT22;2737;52.386;9.980;2024-03-02T10:17:07;11.80;99.90
5429;DHT22;2737;52.386;9.980;2024-03-02T10:19:36;11.80;99.90
5429;DHT22;2737;52.386;9.980;2024-03-02T10:22:03;11.80;99.90
5429;DHT22;2737;52.386;9.980;2024-03-02T10:24:41;11.80;99.90
5429;DHT22;2737;52.386;9.980;2024-03-02T10:27:11;11.90;99.90
5429;DHT22;2737;52.386;9.980;2024-03-02T10:29:41;11.90;99.90
5429;DHT22;2737;52.386;9.980;2024-03-02T10:32:09;11.90;99.90
5429;DHT22;2737;52.386;9.980;2024-03-02T10:34:40;11.90;99.90
5429;DHT22;2737;52.386;9.980;2024-03-02T10:37:07;12.00;99.90
5429;DHT22;2737;52.386;9.980;2024-03-02T10:39:35;12.00;99.90
5429;DHT22;2737;52.386;9.980;2024-03-02T10:42:03;12.00;99.90
5429;DHT22;2737;52.386;9.980;2024-03-02T10:44:32;12.10;99.90
5429;DHT22;2737;52.386;9.980;2024-03-02T10:47:01;12.10;99.90
5429;DHT22;2737;52.386;9.980;2024-03-02T10:49:29;12.10;99.90
5429;DHT22;2737;52.386;9.980;2024-03-02T10:51:58;12.20;99.90
5429;DHT22;2737;52.386;9.980;2024-03-02T10:54:25;12.20;99.90
5429;DHT22;2737;52.386;9.980;2024-03-02T10:56:58;12.20;99.90
5429;DHT22;2737;52.386;9.980;2024-03-02T10:59:27;12.30;99.90
5429;DHT22;2737;52.386;9.980;2024-03-02T11:01:57;12.40;99.90
5429;DHT22;2737;52.386;9.980;2024-03-02T11:04:26;12.50;99.90
5429;DHT22;2737;52.386;9.980;2024-03-02T11:07:00;12.50;99.90
5429;DHT22;2737;52.386;9.980;2024-03-02T11:09:28;12.60;99.90
5429;DHT22;2737;52.386;9.980;2024-03-02T11:12:02;12.50;99.90
5429;DHT22;2737;52.386;9.980;2024-03-02T11:14:31;12.60;99.90
5429;DHT22;2737;52.386;9.980;2024-03-02T11:17:00;12.60;99.90
5429;DHT22;2737;52.386;9.980;2024-03-02T11:19:27;12.70;99.90
5429;DHT22;2737;52.386;9.980;2024-03-02T11:21:55;12.80;99.90
5429;DHT22;2737;52.386;9.980;2024-03-02T11:24:33;12.70;99.90
5429;DHT22;2737;52.386;9.980;2024-03-02T11:27:01;12.70;99.90
5429;DHT22;2737;52.386;9.980;2024-03-02T11:29:44;12.70;99.90
5429;DHT22;2737;52.386;9.980;2024-03-02T11:32:16;12.70;99.90
5429;DHT22;2737;52.386;9.980;2024-03-02T11:34:45;12.60;99.90
5429;DHT22;2737;52.386;9.980;2024-03-02T11:37:14;12.60;99.90
5429;DHT22;2737;52.386;9.980;2024-03-02T11:39:43;12.60;99.90
5429;DHT22;2737;52.386;9.980;2024-03-02T11:42:11;12.70;99.90
5429;DHT22;2737;52.386;9.980;2024-03-02T11:44:42;12.80;99.90
5429;DHT22;2737;52.386;9.980;2024-03-02T11:47:11;12.90;99.90
5429;DHT22;2737;52.386;9.980;2024-03-02T11:49:40;12.90;99.90
5429;DHT22;2737;52.386;9.980;2024-03-02T11:52:09;12.90;99.90
5429;DHT22;2737;52.386;9.980;2024-03-02T11:54:37;13.00;99.90
5429;DHT22;2737;52.386;9.980;2024-03-02T11:57:08;13.00;99.90
5429;DHT22;2737;52.386;9.980;2024-03-02T11:59:35;13.00;99.90
5429;DHT22;2737;52.386;9.980;2024-03-02T12:02:02;13.10;99.90
5429;DHT22;2737;52.386;9.980;2024-03-02T12:04:29;13.10;99.90
5429;DHT22;2737;52.386;9.980;2024-03-02T12:06:58;13.10;99.90
5429;DHT22;2737;52.386;9.980;2024-03-02T12:09:26;13.10;99.90
5429;DHT22;2737;52.386;9.980;2024-03-02T12:12:04;13.10;99.90
5429;DHT22;2737;52.386;9.980;2024-03-02T12:14:33;13.10;99.90
5429;DHT22;2737;52.386;9.980;2024-03-02T12:17:01;13.20;99.90
5429;DHT22;2737;52.386;9.980;2024-03-02T12:19:28;13.20;99.90
5429;DHT22;2737;52.386;9.980;2024-03-02T12:21:56;13.20;99.90
5429;DHT22;2737;52.386;9.980;2024-03-02T12:24:24;13.10;99.90
5429;DHT22;2737;52.386;9.980;2024-03-02T12:26:51;13.10;99.90
5429;DHT22;2737;52.386;9.980;2024-03-02T12:29:19;13.10;99.90
5429;DHT22;2737;52.386;9.980;2024-03-02T12:31:49;13.10;99.90
5429;DHT22;2737;52.386;9.980;2024-03-02T12:34:18;13.20;99.90
5429;DHT22;2737;52.386;9.980;2024-03-02T12:36:46;13.20;99.90
5429;DHT22;2737;52.386;9.980;2024-03-02T12:39:16;13.20;99.90
5429;DHT22;2737;52.386;9.980;2024-03-02T12:41:43;13.20;99.90
5429;DHT22;2737;52.386;9.980;2024-03-02T12:44:10;13.20;99.90
5429;DHT22;2737;52.386;9.980;2024-03-02T12:46:37;13.30;99.90
5429;DHT22;2737;52.386;9.980;2024-03-02T12:49:10;13.40;99.90
5429;DHT22;2737;52.386;9.980;2024-03-02T12:51:39;13.40;99.90
5429;DHT22;2737;52.386;9.980;2024-03-02T12:54:07;13.40;99.90
5429;DHT22;2737;52.386;9.980;2024-03-02T12:56:36;13.50;99.90
5429;DHT22;2737;52.386;9.980;2024-03-02T12:59:03;13.50;99.90
5429;DHT22;2737;52.386;9.980;2024-03-02T13:01:31;13.50;99.90
5429;DHT22;2737;52.386;9.980;2024-03-02T13:03:58;13.50;99.90
5429;DHT22;2737;52.386;9.980;2024-03-02T13:06:27;13.60;99.90
5429;DHT22;2737;52.386;9.980;2024-03-02T13:08:55;13.60;99.90
5429;DHT22;2737;52.386;9.980;2024-03-02T13:11:23;13.70;99.90
5429;DHT22;2737;52.386;9.980;2024-03-02T13:13:51;13.70;99.90
5429;DHT22;2737;52.386;9.980;2024-03-02T13:16:18;13.70;99.90
5429;DHT22;2737;52.386;9.980;2024-03-02T13:18:46;13.60;99.90
5429;DHT22;2737;52.386;9.980;2024-03-02T13:21:14;13.60;99.90
5429;DHT22;2737;52.386;9.980;2024-03-02T13:23:42;13.60;99.90
5429;DHT22;2737;52.386;9.980;2024-03-02T13:26:09;13.50;99.90
5429;DHT22;2737;52.386;9.980;2024-03-02T13:28:39;13.50;99.90
5429;DHT22;2737;52.386;9.980;2024-03-02T13:31:06;13.50;99.90
5429;DHT22;2737;52.386;9.980;2024-03-02T13:33:33;13.50;99.90
5429;DHT22;2737;52.386;9.980;2024-03-02T13:36:00;13.40;99.90
5429;DHT22;2737;52.386;9.980;2024-03-02T13:38:28;13.40;99.90
5429;DHT22;2737;52.386;9.980;2024-03-02T13:40:56;13.40;99.90
5429;DHT22;2737;52.386;9.980;2024-03-02T13:43:26;13.40;99.90
5429;DHT22;2737;52.386;9.980;2024-03-02T13:45:53;13.40;99.90
5429;DHT22;2737;52.386;9.980;2024-03-02T13:48:20;13.40;99.90
5429;DHT22;2737;52.386;9.980;2024-03-02T13:50:47;13.50;99.90
5429;DHT22;2737;52.386;9.980;2024-03-02T13:53:14;13.50;99.90
5429;DHT22;2737;52.386;9.980;2024-03-02T13:55:41;13.40;99.90
5429;DHT22;2737;52.386;9.980;2024-03-02T13:58:10;13.40;99.90
5429;DHT22;2737;52.386;9.980;2024-03-02T14:00:38;13.40;99.90
5429;DHT22;2737;52.386;9.980;2024-03-02T14:03:06;13.40;99.90
5429;DHT22;2737;52.386;9.980;2024-03-02T14:05:33;13.50;99.90
5429;DHT22;2737;52.386;9.980;2024-03-02T14:08:01;13.50;99.90
5429;DHT22;2737;52.386;9.980;2024-03-02T14:10:28;13.40;99.90
5429;DHT22;2737;52.386;9.980;2024-03-02T14:12:55;13.40;99.90
5429;DHT22;2737;52.386;9.980;2024-03-02T14:15:23;13.40;99.90
5429;DHT22;2737;52.386;9.980;2024-03-02T14:17:50;13.40;99.90
5429;DHT22;2737;52.386;9.980;2024-03-02T14:20:18;13.40;99.90
5429;DHT22;2737;52.386;9.980;2024-03-02T14:22:48;13.40;99.90
5429;DHT22;2737;52.386;9.980;2024-03-02T14:25:15;13.40;99.90
5429;DHT22;2737;52.386;9.980;2024-03-02T14:27:43;13.50;99.90
5429;DHT22;2737;52.386;9.980;2024-03-02T14:30:11;13.40;99.90
5429;DHT22;2737;52.386;9.980;2024-03-02T14:32:40;13.40;99.90
5429;DHT22;2737;52.386;9.980;2024-03-02T14:35:07;13.40;99.90
5429;DHT22;2737;52.386;9.980;2024-03-02T14:37:37;13.30;99.90
5429;DHT22;2737;52.386;9.980;2024-03-02T14:40:05;13.40;99.90
5429;DHT22;2737;52.386;9.980;2024-03-02T14:42:35;13.40;99.90
5429;DHT22;2737;52.386;9.980;2024-03-02T14:45:02;13.40;99.90
5429;DHT22;2737;52.386;9.980;2024-03-02T14:47:32;13.40;99.90
5429;DHT22;2737;52.386;9.980;2024-03-02T14:50:01;13.40;99.90
5429;DHT22;2737;52.386;9.980;2024-03-02T14:52:31;13.40;99.90
5429;DHT22;2737;52.386;9.980;2024-03-02T14:54:58;13.40;99.90
5429;DHT22;2737;52.386;9.980;2024-03-02T14:57:25;13.40;99.90
5429;DHT22;2737;52.386;9.980;2024-03-02T14:59:52;13.50;99.90
5429;DHT22;2737;52.386;9.980;2024-03-02T15:02:20;13.40;99.90
5429;DHT22;2737;52.386;9.980;2024-03-02T15:04:47;13.40;99.90
5429;DHT22;2737;52.386;9.980;2024-03-02T15:07:16;13.40;99.90
5429;DHT22;2737;52.386;9.980;2024-03-02T15:09:43;13.40;99.90
5429;DHT22;2737;52.386;9.980;2024-03-02T15:12:10;13.30;99.90
5429;DHT22;2737;52.386;9.980;2024-03-02T15:14:38;13.30;99.90
5429;DHT22;2737;52.386;9.980;2024-03-02T15:17:12;13.20;99.90
5429;DHT22;2737;52.386;9.980;2024-03-02T15:19:41;13.20;99.90
5429;DHT22;2737;52.386;9.980;2024-03-02T15:22:08;13.20;99.90
5429;DHT22;2737;52.386;9.980;2024-03-02T15:24:36;13.20;99.90
5429;DHT22;2737;52.386;9.980;2024-03-02T15:27:04;13.10;99.90
5429;DHT22;2737;52.386;9.980;2024-03-02T15:29:33;13.10;99.90
5429;DHT22;2737;52.386;9.980;2024-03-02T15:32:00;13.10;99.90
5429;DHT22;2737;52.386;9.980;2024-03-02T15:34:30;13.10;99.90
5429;DHT22;2737;52.386;9.980;2024-03-02T15:36:57;13.00;99.90
5429;DHT22;2737;52.386;9.980;2024-03-02T15:39:24;13.00;99.90
5429;DHT22;2737;52.386;9.980;2024-03-02T15:41:53;13.00;99.90
5429;DHT22;2737;52.386;9.980;2024-03-02T15:44:20;13.00;99.90
5429;DHT22;2737;52.386;9.980;2024-03-02T15:46:47;13.00;99.90
5429;DHT22;2737;52.386;9.980;2024-03-02T15:49:14;13.00;99.90
5429;DHT22;2737;52.386;9.980;2024-03-02T15:51:41;12.90;99.90
5429;DHT22;2737;52.386;9.980;2024-03-02T15:54:09;12.90;99.90
5429;DHT22;2737;52.386;9.980;2024-03-02T15:56:37;12.90;99.90
5429;DHT22;2737;52.386;9.980;2024-03-02T15:59:05;12.90;99.90
5429;DHT22;2737;52.386;9.980;2024-03-02T16:01:33;12.80;99.90
5429;DHT22;2737;52.386;9.980;2024-03-02T16:04:00;12.80;99.90
5429;DHT22;2737;52.386;9.980;2024-03-02T16:06:27;12.80;99.90
5429;DHT22;2737;52.386;9.980;2024-03-02T16:08:54;12.70;99.90
5429;DHT22;2737;52.386;9.980;2024-03-02T16:11:25;12.70;99.90
5429;DHT22;2737;52.386;9.980;2024-03-02T16:13:52;12.60;99.90
5429;DHT22;2737;52.386;9.980;2024-03-02T16:16:20;12.60;99.90